createdAt,value
2022-12-20T00:01:32.249Z,8.25
2022-12-20T00:04:02.292Z,7.97
2022-12-20T00:06:29.615Z,7.25
2022-12-20T00:08:58.138Z,6.70
2022-12-20T00:11:25.653Z,5.95
2022-12-20T00:13:52.871Z,6.15
2022-12-20T00:16:27.993Z,7.63
2022-12-20T00:18:57.334Z,6.40
2022-12-20T00:21:24.815Z,6.10
2022-12-20T00:23:52.609Z,6.70
2022-12-20T00:26:22.377Z,5.80
2022-12-20T00:28:49.606Z,5.93
2022-12-20T00:31:18.166Z,6.13
2022-12-20T00:33:46.679Z,5.97
2022-12-20T00:36:13.995Z,5.57
2022-12-20T00:38:41.308Z,5.78
2022-12-20T00:41:10.337Z,5.20
2022-12-20T00:43:38.027Z,5.32
2022-12-20T00:46:05.950Z,5.40
2022-12-20T00:48:33.335Z,5.78
2022-12-20T00:51:01.511Z,5.78
2022-12-20T00:53:28.894Z,5.55
2022-12-20T00:55:56.273Z,5.40
2022-12-20T00:58:23.594Z,5.45
2022-12-20T01:00:56.190Z,5.25
2022-12-20T01:03:25.187Z,5.13
2022-12-20T01:05:53.697Z,5.00
2022-12-20T01:08:21.025Z,4.75
2022-12-20T01:10:58.019Z,4.85
2022-12-20T01:13:25.608Z,4.75
2022-12-20T01:15:52.803Z,5.13
2022-12-20T01:18:20.125Z,4.05
2022-12-20T01:20:47.370Z,4.60
2022-12-20T01:23:14.530Z,4.07
2022-12-20T01:25:41.745Z,4.10
2022-12-20T01:28:10.052Z,3.92
2022-12-20T01:30:41.349Z,4.43
2022-12-20T01:33:08.581Z,3.75
2022-12-20T01:35:35.790Z,3.72
2022-12-20T01:38:03.125Z,3.75
2022-12-20T01:40:30.323Z,3.40
2022-12-20T01:42:57.516Z,3.83
2022-12-20T01:45:29.162Z,3.58
2022-12-20T01:47:57.765Z,3.50
2022-12-20T01:50:24.988Z,3.35
2022-12-20T01:52:52.206Z,3.05
2022-12-20T01:55:24.236Z,4.10
2022-12-20T01:57:57.107Z,3.17
2022-12-20T02:00:24.447Z,3.20
2022-12-20T02:02:51.873Z,3.13
2022-12-20T02:05:20.536Z,3.58
2022-12-20T02:07:49.972Z,3.60
2022-12-20T02:10:17.468Z,3.40
2022-12-20T02:12:45.823Z,3.30
2022-12-20T02:15:20.253Z,3.33
2022-12-20T02:18:05.896Z,3.08
2022-12-20T02:20:57.948Z,3.50
2022-12-20T02:24:07.964Z,3.30
2022-12-20T02:27:19.244Z,3.22
2022-12-20T02:30:03.535Z,3.35
2022-12-20T02:33:03.851Z,3.30
2022-12-20T02:35:34.031Z,3.53
2022-12-20T02:38:03.836Z,3.47
2022-12-20T02:40:35.168Z,3.60
2022-12-20T02:43:04.939Z,2.78
2022-12-20T02:45:34.640Z,2.88
2022-12-20T02:48:03.453Z,3.17
2022-12-20T02:50:40.178Z,3.10
2022-12-20T02:53:07.504Z,3.25
2022-12-20T02:55:50.888Z,3.97
2022-12-20T02:58:26.356Z,3.55
2022-12-20T03:00:53.607Z,3.40
2022-12-20T03:03:23.605Z,3.00
2022-12-20T03:05:53.332Z,3.80
2022-12-20T03:08:21.318Z,3.40
2022-12-20T03:10:49.619Z,3.35
2022-12-20T03:13:17.226Z,3.15
2022-12-20T03:15:50.180Z,3.28
2022-12-20T03:18:17.444Z,3.20
2022-12-20T03:20:44.669Z,3.13
2022-12-20T03:23:11.916Z,3.17
2022-12-20T03:25:39.615Z,3.60
2022-12-20T03:28:09.052Z,3.50
2022-12-20T03:30:36.814Z,3.55
2022-12-20T03:33:04.171Z,3.63
2022-12-20T03:35:31.644Z,3.92
2022-12-20T03:37:59.287Z,3.08
2022-12-20T03:40:26.623Z,4.10
2022-12-20T03:42:54.425Z,4.03
2022-12-20T03:45:21.696Z,3.78
2022-12-20T03:47:49.700Z,3.72
2022-12-20T03:50:17.873Z,3.95
2022-12-20T03:52:45.267Z,3.80
2022-12-20T03:55:12.676Z,3.47
2022-12-20T03:57:42.197Z,3.80
2022-12-20T04:00:23.319Z,4.15
2022-12-20T04:02:53.764Z,4.07
2022-12-20T04:05:21.780Z,4.05
2022-12-20T04:07:48.977Z,3.95
2022-12-20T04:10:16.261Z,4.18
2022-12-20T04:12:43.569Z,3.95
2022-12-20T04:15:12.384Z,3.65
2022-12-20T04:17:41.712Z,4.05
2022-12-20T04:20:21.684Z,3.85
2022-12-20T04:22:56.660Z,4.28
2022-12-20T04:25:24.277Z,4.00
2022-12-20T04:27:55.573Z,4.00
2022-12-20T04:30:22.762Z,3.58
2022-12-20T04:32:54.620Z,4.10
2022-12-20T04:35:22.485Z,4.38
2022-12-20T04:37:50.229Z,4.07
2022-12-20T04:40:18.420Z,4.07
2022-12-20T04:42:55.385Z,4.25
2022-12-20T04:45:22.962Z,4.00
2022-12-20T04:47:51.938Z,4.30
2022-12-20T04:50:25.357Z,3.67
2022-12-20T04:53:11.691Z,4.13
2022-12-20T04:55:39.608Z,4.00
2022-12-20T04:58:07.982Z,4.32
2022-12-20T05:00:37.622Z,4.00
2022-12-20T05:03:18.096Z,3.83
2022-12-20T05:05:45.475Z,3.80
2022-12-20T05:08:12.818Z,3.92
2022-12-20T05:10:40.247Z,3.95
2022-12-20T05:13:09.442Z,3.90
2022-12-20T05:15:43.423Z,4.22
2022-12-20T05:18:11.319Z,3.42
2022-12-20T05:21:11.275Z,4.53
2022-12-20T05:23:57.927Z,4.18
2022-12-20T05:26:31.455Z,3.92
2022-12-20T05:28:58.689Z,3.97
2022-12-20T05:31:27.775Z,3.78
2022-12-20T05:33:55.289Z,3.88
2022-12-20T05:36:25.392Z,3.63
2022-12-20T05:38:58.095Z,3.60
2022-12-20T05:41:29.478Z,3.72
2022-12-20T05:43:56.708Z,3.88
2022-12-20T05:46:25.406Z,4.15
2022-12-20T05:49:01.062Z,3.80
2022-12-20T05:51:28.813Z,3.78
2022-12-20T05:54:19.260Z,4.38
2022-12-20T05:56:53.333Z,4.38
2022-12-20T05:59:25.919Z,3.83
2022-12-20T06:01:53.193Z,3.50
2022-12-20T06:04:21.150Z,3.60
2022-12-20T06:06:49.181Z,3.63
2022-12-20T06:09:19.161Z,4.00
2022-12-20T06:11:54.904Z,3.63
2022-12-20T06:14:22.703Z,3.53
2022-12-20T06:16:50.052Z,3.97
2022-12-20T06:19:21.639Z,4.18
2022-12-20T06:21:50.649Z,3.67
2022-12-20T06:24:25.215Z,3.58
2022-12-20T06:26:53.352Z,4.07
2022-12-20T06:29:21.573Z,4.05
2022-12-20T06:31:52.607Z,3.25
2022-12-20T06:34:20.445Z,3.40
2022-12-20T06:36:47.745Z,3.70
2022-12-20T06:39:20.448Z,3.30
2022-12-20T06:41:56.135Z,3.30
2022-12-20T06:44:23.381Z,3.45
2022-12-20T06:46:51.562Z,3.08
2022-12-20T06:49:19.415Z,2.83
2022-12-20T06:51:47.657Z,2.60
2022-12-20T06:54:15.671Z,3.40
2022-12-20T06:56:42.920Z,3.33
2022-12-20T06:59:12.397Z,3.20
2022-12-20T07:01:39.755Z,3.83
2022-12-20T07:04:07.040Z,3.60
2022-12-20T07:06:34.452Z,3.20
2022-12-20T07:09:02.237Z,3.30
2022-12-20T07:11:29.431Z,3.03
2022-12-20T07:13:57.251Z,3.05
2022-12-20T07:16:24.759Z,3.20
2022-12-20T07:18:53.502Z,2.88
2022-12-20T07:21:21.124Z,3.20
2022-12-20T07:23:48.326Z,3.00
2022-12-20T07:26:15.607Z,2.80
2022-12-20T07:28:42.867Z,3.00
2022-12-20T07:31:10.069Z,3.15
2022-12-20T07:33:37.416Z,3.45
2022-12-20T07:36:10.215Z,3.13
2022-12-20T07:38:37.555Z,3.20
2022-12-20T07:41:12.280Z,3.38
2022-12-20T07:46:07.002Z,4.15
2022-12-20T07:48:34.406Z,4.03
2022-12-20T07:51:13.205Z,4.07
2022-12-20T07:53:43.459Z,3.88
2022-12-20T07:56:11.318Z,3.40
2022-12-20T07:58:38.736Z,3.25
2022-12-20T08:01:06.022Z,3.45
2022-12-20T08:03:46.082Z,3.28
2022-12-20T08:06:13.491Z,2.85
2022-12-20T08:08:41.858Z,2.83
2022-12-20T08:11:09.556Z,3.30
2022-12-20T08:13:40.955Z,3.70
2022-12-20T08:16:13.231Z,3.17
2022-12-20T08:18:40.539Z,3.55
2022-12-20T08:21:08.409Z,3.40
2022-12-20T08:23:35.633Z,3.47
2022-12-20T08:26:02.828Z,3.35
2022-12-20T08:28:30.064Z,2.80
2022-12-20T08:31:04.801Z,2.92
2022-12-20T08:33:33.090Z,3.10
2022-12-20T08:36:02.358Z,3.17
2022-12-20T08:38:30.904Z,3.38
2022-12-20T08:41:05.974Z,3.28
2022-12-20T08:43:33.747Z,3.38
2022-12-20T08:46:01.029Z,3.17
2022-12-20T08:48:28.395Z,3.70
2022-12-20T08:50:56.913Z,3.20
2022-12-20T08:53:24.318Z,3.25
2022-12-20T08:55:51.536Z,2.92
2022-12-20T08:58:19.041Z,2.63
2022-12-20T09:00:46.915Z,3.40
2022-12-20T09:03:15.278Z,3.00
2022-12-20T09:05:48.893Z,2.80
2022-12-20T09:08:16.810Z,2.72
2022-12-20T09:10:43.996Z,2.95
2022-12-20T09:13:11.346Z,3.00
2022-12-20T09:15:38.617Z,2.80
2022-12-20T09:18:05.947Z,3.10
2022-12-20T09:20:33.151Z,3.40
2022-12-20T09:23:00.435Z,3.72
2022-12-20T09:25:28.039Z,4.15
2022-12-20T09:27:56.806Z,4.15
2022-12-20T09:30:24.194Z,4.22
2022-12-20T09:32:51.419Z,4.22
2022-12-20T09:35:23.024Z,3.72
2022-12-20T09:37:50.800Z,3.88
2022-12-20T09:40:19.373Z,3.60
2022-12-20T09:42:47.245Z,3.35
2022-12-20T09:45:26.312Z,3.92
2022-12-20T09:47:53.551Z,4.18
2022-12-20T09:50:21.724Z,4.20
2022-12-20T09:52:56.038Z,4.22
2022-12-20T09:55:44.389Z,3.97
2022-12-20T09:58:37.902Z,3.90
2022-12-20T10:01:24.988Z,4.50
2022-12-20T10:03:53.468Z,4.32
2022-12-20T10:06:39.459Z,4.13
2022-12-20T10:09:26.455Z,3.75
2022-12-20T10:12:15.674Z,3.75
2022-12-20T10:15:12.221Z,3.75
2022-12-20T10:18:17.134Z,4.18
2022-12-20T10:20:47.354Z,4.07
2022-12-20T10:23:32.679Z,4.45
2022-12-20T10:26:01.010Z,4.60
2022-12-20T10:28:30.157Z,4.60
2022-12-20T10:31:26.987Z,4.88
2022-12-20T10:33:54.234Z,4.47
2022-12-20T10:36:28.415Z,5.22
2022-12-20T10:38:57.075Z,3.70
2022-12-20T10:41:30.903Z,4.65
2022-12-20T10:44:05.973Z,4.17
2022-12-20T10:46:38.900Z,4.20
2022-12-20T10:49:33.567Z,3.40
2022-12-20T10:52:21.059Z,2.40
2022-12-20T10:54:48.251Z,3.08
2022-12-20T10:57:23.167Z,3.28
2022-12-20T10:59:56.298Z,3.42
2022-12-20T11:02:42.752Z,3.88
2022-12-20T11:05:18.644Z,3.17
2022-12-20T11:08:33.440Z,3.28
2022-12-20T11:10:42.164Z,3.53
2022-12-20T11:13:37.500Z,4.00
2022-12-20T11:16:04.995Z,3.85
2022-12-20T11:18:40.330Z,4.13
2022-12-20T11:21:27.422Z,3.95
2022-12-20T11:24:15.853Z,4.07
2022-12-20T11:27:15.285Z,4.07
2022-12-20T11:29:58.315Z,3.78
2022-12-20T11:32:49.081Z,4.20
2022-12-20T11:35:32.592Z,3.65
2022-12-20T11:38:25.581Z,4.00
2022-12-20T11:40:58.499Z,3.40
2022-12-20T11:44:23.771Z,3.60
2022-12-20T11:46:54.821Z,4.10
2022-12-20T11:49:41.948Z,3.83
2022-12-20T11:52:41.180Z,5.28
2022-12-20T11:55:08.346Z,4.60
2022-12-20T11:58:16.432Z,5.30
2022-12-20T12:00:31.937Z,5.70
2022-12-20T12:03:07.622Z,6.15
2022-12-20T12:05:44.466Z,6.32
2022-12-20T12:08:18.611Z,5.78
2022-12-20T12:11:32.010Z,4.20
2022-12-20T12:14:00.252Z,6.85
2022-12-20T12:16:39.474Z,6.57
2022-12-20T12:19:09.391Z,6.47
2022-12-20T12:21:47.977Z,7.28
2022-12-20T12:24:30.279Z,6.07
2022-12-20T12:26:59.024Z,6.65
2022-12-20T12:29:26.284Z,6.40
2022-12-20T12:31:54.954Z,6.75
2022-12-20T12:34:49.954Z,6.80
2022-12-20T12:37:46.172Z,5.00
2022-12-20T12:40:16.509Z,8.07
2022-12-20T12:43:05.719Z,8.27
2022-12-20T12:45:37.480Z,7.45
2022-12-20T12:48:22.177Z,7.72
2022-12-20T12:50:54.396Z,7.82
2022-12-20T12:53:24.341Z,6.47
2022-12-20T12:56:02.276Z,6.97
2022-12-20T12:58:46.355Z,7.10
2022-12-20T13:01:46.585Z,6.32
2022-12-20T13:04:20.064Z,7.05
2022-12-20T13:06:47.246Z,6.10
2022-12-20T13:09:24.814Z,6.30
2022-12-20T13:12:01.040Z,6.05
2022-12-20T13:14:30.619Z,6.20
2022-12-20T13:17:20.716Z,6.00
2022-12-20T13:19:54.857Z,6.32
2022-12-20T13:22:25.717Z,5.80
2022-12-20T13:24:55.687Z,6.55
2022-12-20T13:27:30.884Z,5.50
2022-12-20T13:30:07.315Z,6.00
2022-12-20T13:32:56.477Z,5.93
2022-12-20T13:35:27.739Z,5.80
2022-12-20T13:38:05.684Z,6.40
2022-12-20T13:40:44.237Z,6.63
2022-12-20T13:43:20.740Z,6.82
2022-12-20T13:46:00.346Z,7.63
2022-12-20T13:48:33.745Z,11.32
2022-12-20T13:51:01.006Z,11.80
2022-12-20T13:53:28.207Z,13.77
2022-12-20T13:55:55.477Z,13.50
2022-12-20T13:58:24.251Z,13.60
2022-12-20T14:00:51.652Z,13.82
2022-12-20T14:03:25.643Z,14.75
2022-12-20T14:05:58.582Z,14.20
2022-12-20T14:08:30.198Z,15.98
2022-12-20T14:11:27.428Z,17.67
2022-12-20T14:13:59.309Z,21.00
2022-12-20T14:16:27.979Z,22.20
2022-12-20T14:19:02.435Z,23.42
2022-12-20T14:21:29.854Z,23.38
2022-12-20T14:23:58.438Z,21.98
2022-12-20T14:26:30.497Z,23.85
2022-12-20T14:28:58.445Z,24.13
2022-12-20T14:31:37.699Z,23.83
2022-12-20T14:34:29.790Z,25.13
2022-12-20T14:37:19.704Z,24.42
2022-12-20T14:40:10.143Z,23.85
2022-12-20T14:42:38.877Z,22.00
2022-12-20T14:45:09.106Z,24.60
2022-12-20T14:47:37.585Z,24.83
2022-12-20T14:50:18.565Z,25.67
2022-12-20T14:52:45.771Z,26.10
2022-12-20T14:55:19.665Z,25.83
2022-12-20T14:57:52.087Z,23.67
2022-12-20T15:00:27.898Z,23.58
2022-12-20T15:03:01.300Z,24.60
2022-12-20T15:05:35.169Z,18.27
2022-12-20T15:08:33.183Z,24.35
2022-12-20T15:11:22.818Z,23.58
2022-12-20T15:13:52.507Z,23.70
2022-12-20T15:16:24.358Z,23.67
2022-12-20T15:18:53.461Z,24.05
2022-12-20T15:21:30.618Z,23.20
2022-12-20T15:23:59.401Z,24.83
2022-12-20T15:26:27.171Z,25.08
2022-12-20T15:28:54.539Z,24.83
2022-12-20T15:31:30.881Z,23.98
2022-12-20T15:34:02.442Z,23.75
2022-12-20T15:36:29.934Z,25.95
2022-12-20T15:39:14.314Z,24.05
2022-12-20T15:41:44.858Z,24.40
2022-12-20T15:44:23.571Z,23.95
2022-12-20T15:46:51.287Z,23.08
2022-12-20T15:49:23.215Z,23.77
2022-12-20T15:51:51.464Z,23.80
2022-12-20T15:54:34.679Z,23.73
2022-12-20T15:57:09.286Z,23.30
2022-12-20T16:02:28.363Z,23.98
2022-12-20T16:04:55.933Z,22.98
2022-12-20T16:07:23.588Z,22.92
2022-12-20T16:09:50.966Z,23.85
2022-12-20T16:12:19.894Z,21.98
2022-12-20T16:14:47.482Z,22.65
2022-12-20T16:17:15.009Z,23.77
2022-12-20T16:19:42.686Z,22.45
2022-12-20T16:22:17.886Z,21.17
2022-12-20T16:24:45.649Z,22.35
2022-12-20T16:27:12.865Z,21.45
2022-12-20T16:29:41.363Z,24.10
2022-12-20T16:32:15.643Z,24.70
2022-12-20T16:34:43.157Z,23.48
2022-12-20T16:37:11.707Z,23.80
2022-12-20T16:39:39.018Z,22.17
2022-12-20T16:42:21.944Z,24.23
2022-12-20T16:44:52.670Z,23.92
2022-12-20T16:47:19.992Z,26.60
2022-12-20T16:49:52.269Z,29.58
2022-12-20T16:52:22.178Z,31.20
2022-12-20T16:54:49.960Z,28.23
2022-12-20T16:57:17.171Z,32.25
2022-12-20T16:59:44.583Z,31.13
2022-12-20T17:02:32.752Z,31.77
2022-12-20T17:05:00.397Z,32.08
2022-12-20T17:07:27.723Z,28.15
2022-12-20T17:10:12.848Z,29.60
2022-12-20T17:12:40.086Z,28.75
2022-12-20T17:15:10.542Z,33.38
2022-12-20T17:17:37.719Z,33.97
2022-12-20T17:20:05.836Z,37.58
2022-12-20T17:22:33.012Z,37.72
2022-12-20T17:25:00.227Z,38.72
2022-12-20T17:27:27.410Z,40.40
2022-12-20T17:29:54.730Z,40.10
2022-12-20T17:32:23.578Z,41.53
2022-12-20T17:34:50.932Z,39.08
2022-12-20T17:37:18.316Z,36.22
2022-12-20T17:39:45.632Z,35.97
2022-12-20T17:42:13.587Z,40.35
2022-12-20T17:44:40.812Z,42.53
2022-12-20T17:47:08.107Z,41.47
2022-12-20T17:49:35.301Z,39.85
2022-12-20T17:52:02.488Z,39.65
2022-12-20T17:54:35.167Z,42.40
2022-12-20T17:57:06.116Z,42.22
2022-12-20T17:59:33.301Z,42.92
2022-12-20T18:02:00.655Z,38.05
2022-12-20T18:04:28.158Z,36.90
2022-12-20T18:06:56.606Z,37.65
2022-12-20T18:09:23.813Z,38.08
2022-12-20T18:11:51.034Z,33.75
2022-12-20T18:14:18.211Z,33.08
2022-12-20T18:16:45.846Z,31.95
2022-12-20T18:19:17.351Z,34.58
2022-12-20T18:21:45.027Z,35.70
2022-12-20T18:24:13.267Z,35.10
2022-12-20T18:26:40.891Z,35.05
2022-12-20T18:29:08.931Z,48.60
2022-12-20T18:31:36.197Z,45.50
2022-12-20T18:34:03.715Z,44.55
2022-12-20T18:36:32.651Z,34.15
2022-12-20T18:39:00.155Z,26.67
2022-12-20T18:41:29.341Z,25.73
2022-12-20T18:43:58.504Z,27.88
2022-12-20T18:46:25.852Z,20.05
2022-12-20T18:48:54.717Z,17.98
2022-12-20T18:51:23.743Z,18.25
2022-12-20T18:53:53.799Z,18.85
2022-12-20T18:56:24.788Z,19.00
2022-12-20T18:58:52.189Z,18.25
2022-12-20T19:01:21.465Z,19.10
2022-12-20T19:03:50.422Z,14.65
2022-12-20T19:06:17.797Z,14.85
2022-12-20T19:08:45.025Z,14.85
2022-12-20T19:11:14.158Z,14.85
2022-12-20T19:13:41.841Z,13.30
2022-12-20T19:16:12.926Z,12.13
2022-12-20T19:18:41.076Z,11.57
2022-12-20T19:21:30.311Z,12.80
2022-12-20T19:23:58.912Z,11.73
2022-12-20T19:26:30.286Z,13.52
2022-12-20T19:28:57.519Z,11.77
2022-12-20T19:31:32.037Z,11.38
2022-12-20T19:34:03.647Z,10.57
2022-12-20T19:36:36.073Z,9.98
2022-12-20T19:39:06.609Z,10.40
2022-12-20T19:41:34.239Z,9.65
2022-12-20T19:44:01.596Z,10.48
2022-12-20T19:46:30.135Z,9.13
2022-12-20T19:48:58.210Z,9.73
2022-12-20T19:51:25.672Z,9.48
2022-12-20T19:53:53.611Z,9.85
2022-12-20T19:56:25.945Z,9.35
2022-12-20T19:58:53.373Z,9.23
2022-12-20T20:01:22.784Z,9.48
2022-12-20T20:03:50.324Z,9.52
2022-12-20T20:06:17.629Z,10.07
2022-12-20T20:08:45.590Z,9.90
2022-12-20T20:11:12.830Z,9.68
2022-12-20T20:13:40.379Z,10.20
2022-12-20T20:16:07.957Z,9.48
2022-12-20T20:18:36.179Z,8.77
2022-12-20T20:21:08.179Z,10.38
2022-12-20T20:23:36.639Z,9.60
2022-12-20T20:26:07.264Z,11.55
2022-12-20T20:28:41.837Z,11.38
2022-12-20T20:31:13.486Z,11.57
2022-12-20T20:33:40.961Z,11.23
2022-12-20T20:36:08.628Z,12.20
2022-12-20T20:38:35.886Z,11.38
2022-12-20T20:41:03.555Z,11.60
2022-12-20T20:43:36.464Z,12.32
2022-12-20T20:46:07.087Z,11.68
2022-12-20T20:48:34.831Z,11.32
2022-12-20T20:51:02.085Z,10.77
2022-12-20T20:53:33.410Z,11.40
2022-12-20T20:56:02.818Z,12.63
2022-12-20T20:58:30.395Z,11.30
2022-12-20T21:01:01.813Z,11.77
2022-12-20T21:03:29.814Z,13.23
2022-12-20T21:06:34.965Z,11.00
2022-12-20T21:08:44.643Z,9.98
2022-12-20T21:11:12.088Z,9.20
2022-12-20T21:13:39.544Z,11.02
2022-12-20T21:16:16.017Z,10.88
2022-12-20T21:18:43.415Z,8.77
2022-12-20T21:21:11.887Z,8.55
2022-12-20T21:23:39.708Z,8.93
2022-12-20T21:26:07.625Z,8.63
2022-12-20T21:28:35.551Z,9.25
2022-12-20T21:31:04.125Z,9.25
2022-12-20T21:33:31.433Z,9.27
2022-12-20T21:36:10.547Z,9.43
2022-12-20T21:38:37.907Z,8.15
2022-12-20T21:41:10.356Z,6.45
2022-12-20T21:43:37.751Z,8.70
2022-12-20T21:46:05.265Z,7.00
2022-12-20T21:48:32.447Z,8.45
2022-12-20T21:51:09.878Z,7.07
2022-12-20T21:53:44.255Z,8.20
2022-12-20T21:56:11.533Z,8.82
2022-12-20T21:58:38.733Z,8.18
2022-12-20T22:01:06.335Z,9.35
2022-12-20T22:03:33.772Z,7.85
2022-12-20T22:06:01.184Z,7.90
2022-12-20T22:08:28.763Z,8.65
2022-12-20T22:11:04.305Z,9.45
2022-12-20T22:13:35.663Z,9.73
2022-12-20T22:16:12.696Z,9.63
2022-12-20T22:18:40.405Z,8.63
2022-12-20T22:21:10.209Z,8.35
2022-12-20T22:23:37.706Z,8.02
2022-12-20T22:26:09.743Z,8.15
2022-12-20T22:28:37.584Z,7.97
2022-12-20T22:31:08.702Z,7.68
2022-12-20T22:33:36.937Z,8.73
2022-12-20T22:36:04.427Z,7.97
2022-12-20T22:38:31.627Z,7.35
2022-12-20T22:41:12.835Z,8.07
2022-12-20T22:43:41.042Z,8.73
2022-12-20T22:46:10.415Z,7.95
2022-12-20T22:48:38.119Z,8.07
2022-12-20T22:51:07.639Z,8.15
2022-12-20T22:53:35.364Z,8.65
2022-12-20T22:56:02.727Z,9.27
2022-12-20T22:58:30.282Z,8.90
2022-12-20T23:00:58.335Z,8.40
2022-12-20T23:03:26.156Z,8.43
2022-12-20T23:06:03.791Z,9.20
2022-12-20T23:08:32.416Z,9.45
2022-12-20T23:11:17.978Z,9.82
2022-12-20T23:14:03.658Z,8.95
2022-12-20T23:16:31.001Z,10.30
2022-12-20T23:19:00.087Z,10.43
2022-12-20T23:21:46.265Z,9.35
2022-12-20T23:24:14.644Z,11.25
2022-12-20T23:26:42.015Z,10.73
2022-12-20T23:29:09.430Z,12.02
2022-12-20T23:31:36.681Z,11.57
2022-12-20T23:34:04.068Z,11.82
2022-12-20T23:36:33.154Z,10.75
2022-12-20T23:39:00.595Z,10.68
2022-12-20T23:41:28.014Z,9.80
2022-12-20T23:43:55.572Z,10.13
2022-12-20T23:46:22.920Z,10.05
2022-12-20T23:48:51.137Z,9.50
2022-12-20T23:51:18.813Z,10.52
2022-12-20T23:53:46.010Z,9.88
2022-12-20T23:56:18.159Z,9.48
2022-12-20T23:58:46.089Z,9.52
